createdAt,value
2022-12-08T00:04:52.900Z,4.78
2022-12-08T00:10:25.498Z,4.78
2022-12-08T00:14:34.309Z,4.45
2022-12-08T00:19:16.684Z,4.45
2022-12-08T00:24:27.105Z,5.21
2022-12-08T00:29:38.123Z,5.21
2022-12-08T00:34:47.875Z,4.72
2022-12-08T00:39:57.646Z,4.72
2022-12-08T00:45:06.151Z,4.92
2022-12-08T00:50:14.604Z,4.92
2022-12-08T00:55:23.065Z,4.6
2022-12-08T01:00:33.522Z,4.6
2022-12-08T01:05:43.242Z,4.66
2022-12-08T01:10:53.573Z,4.66
2022-12-08T01:16:00.841Z,5.32
2022-12-08T01:21:09.947Z,5.32
2022-12-08T01:26:19.753Z,5.7
2022-12-08T01:31:28.751Z,5.7
2022-12-08T01:36:36.677Z,4.76
2022-12-08T01:41:45.168Z,4.76
2022-12-08T01:46:54.922Z,4.39
2022-12-08T01:52:04.053Z,4.39
2022-12-08T01:57:12.551Z,4.87
2022-12-08T02:02:22.602Z,4.87
2022-12-08T02:07:32.069Z,4.67
2022-12-08T02:12:41.170Z,4.67
2022-12-08T02:17:49.635Z,4.31
2022-12-08T02:22:58.786Z,4.31
2022-12-08T02:28:07.886Z,4.39
2022-12-08T02:33:18.320Z,4.39
2022-12-08T02:38:28.071Z,4.38
2022-12-08T02:43:37.152Z,4.38
2022-12-08T02:48:46.916Z,4.95
2022-12-08T02:53:56.832Z,4.52
2022-12-08T02:59:06.441Z,4.52
2022-12-08T03:04:16.203Z,4.87
2022-12-08T03:09:26.597Z,4.87
2022-12-08T03:14:37.034Z,5.14
2022-12-08T03:19:46.141Z,5.14
2022-12-08T03:24:55.953Z,4.56
2022-12-08T03:30:06.937Z,4.56
2022-12-08T03:35:19.219Z,4.97
2022-12-08T03:40:36.025Z,4.97
2022-12-08T03:45:51.507Z,5.3
2022-12-08T03:51:05.861Z,5.3
2022-12-08T03:56:21.914Z,5.07
2022-12-08T04:01:38.105Z,5.07
2022-12-08T04:06:54.255Z,4.86
2022-12-08T04:12:09.756Z,4.86
2022-12-08T04:17:25.946Z,4.87
2022-12-08T04:22:41.489Z,4.87
2022-12-08T04:27:56.304Z,4.42
2022-12-08T04:33:11.271Z,4.42
2022-12-08T04:37:37.381Z,4.8
2022-12-08T04:42:19.081Z,4.8
2022-12-08T04:47:28.842Z,4.56
2022-12-08T04:52:38.603Z,4.56
2022-12-08T04:57:47.757Z,4.24
2022-12-08T05:02:56.546Z,4.24
2022-12-08T05:08:05.075Z,4.68
2022-12-08T05:13:14.427Z,4.68
2022-12-08T05:18:22.926Z,4.44
2022-12-08T05:23:32.034Z,4.44
2022-12-08T05:28:44.619Z,4.1
2022-12-08T05:33:49.644Z,4.1
2022-12-08T05:38:58.116Z,4.42
2022-12-08T05:44:06.654Z,4.42
2022-12-08T05:49:15.709Z,4.05
2022-12-08T05:54:26.161Z,4.7
2022-12-08T05:59:34.608Z,4.7
2022-12-08T06:04:43.077Z,4.35
2022-12-08T06:09:51.565Z,4.35
2022-12-08T06:15:00.703Z,4.08
2022-12-08T06:20:09.170Z,4.08
2022-12-08T06:25:17.632Z,4.13
2022-12-08T06:30:26.789Z,4.13
2022-12-08T06:35:35.256Z,4.27
2022-12-08T06:40:43.760Z,4.27
2022-12-08T06:45:53.127Z,4.08
2022-12-08T06:51:01.349Z,4.08
2022-12-08T06:56:09.824Z,4.13
2022-12-08T07:01:19.985Z,4.13
2022-12-08T07:06:28.703Z,4.08
2022-12-08T07:11:37.825Z,4.08
2022-12-08T07:16:52.040Z,3.97
2022-12-08T07:22:07.548Z,3.97
2022-12-08T07:27:23.014Z,4.04
2022-12-08T07:32:38.735Z,4.04
2022-12-08T07:37:55.998Z,3.97
2022-12-08T07:43:21.108Z,3.97
2022-12-08T07:48:36.629Z,3.96
2022-12-08T07:53:54.369Z,3.96
2022-12-08T07:59:07.673Z,3.95
2022-12-08T08:03:07.446Z,3.95
2022-12-08T08:08:15.877Z,3.99
2022-12-08T08:13:23.404Z,3.99
2022-12-08T08:18:33.182Z,3.97
2022-12-08T08:23:42.278Z,3.97
2022-12-08T08:28:51.495Z,3.98
2022-12-08T08:34:01.815Z,3.98
2022-12-08T08:39:10.283Z,3.92
2022-12-08T08:44:20.742Z,3.92
2022-12-08T08:49:29.802Z,3.92
2022-12-08T08:54:39.616Z,3.92
2022-12-08T08:59:47.430Z,3.93
2022-12-08T09:04:56.198Z,3.96
2022-12-08T09:10:07.107Z,3.96
2022-12-08T09:15:16.047Z,3.99
2022-12-08T09:20:25.834Z,3.99
2022-12-08T09:25:34.939Z,3.97
2022-12-08T09:30:44.058Z,3.97
2022-12-08T09:35:53.218Z,3.96
2022-12-08T09:41:02.925Z,3.96
2022-12-08T09:46:13.685Z,3.98
2022-12-08T09:51:23.074Z,3.98
2022-12-08T09:56:33.053Z,3.94
2022-12-08T10:01:42.139Z,3.94
2022-12-08T10:06:49.813Z,3.95
2022-12-08T10:11:58.307Z,3.95
2022-12-08T10:17:08.469Z,3.98
2022-12-08T10:22:29.277Z,3.98
2022-12-08T10:27:47.935Z,3.92
2022-12-08T10:32:55.104Z,3.92
2022-12-08T10:37:45.180Z,3.97
2022-12-08T10:42:54.929Z,3.97
2022-12-08T10:48:04.719Z,3.98
2022-12-08T10:53:13.803Z,3.98
2022-12-08T10:58:24.242Z,4.02
2022-12-08T11:03:33.317Z,4.02
2022-12-08T11:08:42.437Z,4.03
2022-12-08T11:13:50.959Z,4.03
2022-12-08T11:19:00.681Z,4.01
2022-12-08T11:24:11.728Z,4.01
2022-12-08T11:29:21.493Z,3.99
2022-12-08T11:34:36.870Z,3.99
2022-12-08T11:39:37.803Z,3.98
2022-12-08T11:44:46.292Z,3.98
2022-12-08T11:50:06.386Z,3.97
2022-12-08T11:55:15.937Z,3.97
2022-12-08T12:00:25.065Z,4.01
2022-12-08T12:10:44.760Z,4.04
2022-12-08T12:15:53.683Z,4.06
2022-12-08T12:21:02.812Z,4.06
2022-12-08T12:26:12.549Z,4.05
2022-12-08T12:27:40.993Z,4.05
2022-12-08T12:32:48.833Z,4.05
2022-12-08T12:37:58.627Z,4.03
2022-12-08T12:43:07.718Z,4.03
2022-12-08T12:48:14.920Z,3.99
2022-12-08T12:53:23.393Z,3.99
2022-12-08T12:58:33.190Z,3.94
2022-12-08T13:03:42.290Z,3.94
2022-12-08T13:08:52.087Z,3.98
2022-12-08T13:14:00.527Z,3.98
2022-12-08T13:19:10.291Z,3.99
2022-12-08T13:24:20.075Z,3.99
2022-12-08T13:29:29.863Z,3.98
2022-12-08T13:34:38.317Z,3.98
2022-12-08T13:39:46.153Z,3.88
2022-12-08T13:47:34.115Z,3.88
2022-12-08T14:00:22.616Z,3.97
2022-12-08T14:06:14.401Z,3.97
2022-12-08T14:10:41.485Z,4.05
2022-12-08T14:15:51.544Z,3.99
2022-12-08T14:21:22.443Z,3.99
2022-12-08T14:26:09.474Z,4.13
2022-12-08T14:31:18.920Z,4.13
2022-12-08T14:36:28.364Z,4.08
2022-12-08T14:41:38.805Z,4.08
2022-12-08T14:46:49.631Z,4.14
2022-12-08T14:51:57.675Z,4.14
2022-12-08T14:57:06.764Z,4.09
2022-12-08T15:02:15.242Z,4.09
2022-12-08T15:07:24.390Z,4.05
2022-12-08T15:12:34.111Z,4.05
2022-12-08T15:17:43.913Z,3.89
2022-12-08T15:22:52.416Z,3.89
2022-12-08T15:28:01.567Z,3.87
2022-12-08T15:33:10.685Z,3.87
2022-12-08T15:38:19.087Z,3.95
2022-12-08T15:43:28.209Z,3.95
2022-12-08T15:48:36.715Z,4.05
2022-12-08T15:53:45.185Z,4.05
2022-12-08T15:58:59.052Z,4.06
2022-12-08T16:07:19.475Z,4.06
2022-12-08T16:09:14.544Z,4.15
2022-12-08T16:16:01.735Z,4.15
2022-12-08T16:19:28.850Z,4.09
2022-12-08T16:24:37.997Z,4.09
2022-12-08T16:29:46.453Z,4.15
2022-12-08T16:34:56.206Z,4.15
2022-12-08T16:40:05.710Z,4.2
2022-12-08T16:45:14.472Z,4.2
2022-12-08T16:50:25.476Z,4.26
2022-12-08T16:55:33.980Z,4.26
2022-12-08T17:00:44.044Z,4.21
2022-12-08T17:05:52.203Z,4.21
2022-12-08T17:11:01.337Z,4.28
2022-12-08T17:16:09.413Z,4.3
2022-12-08T17:21:21.478Z,4.3
2022-12-08T17:26:29.988Z,4.29
2022-12-08T17:31:39.444Z,4.29
2022-12-08T17:36:48.874Z,4.31
2022-12-08T17:41:59.234Z,4.31
2022-12-08T17:47:08.399Z,4.25
2022-12-08T17:52:18.130Z,4.25
2022-12-08T17:57:27.917Z,4.33
2022-12-08T18:02:37.112Z,4.33
2022-12-08T18:07:47.703Z,4.35
2022-12-08T18:12:57.157Z,4.35
2022-12-08T18:18:06.272Z,4.23
2022-12-08T18:23:14.784Z,4.23
2022-12-08T18:28:24.523Z,4.25
2022-12-08T18:33:32.366Z,4.25
2022-12-08T18:38:40.884Z,4.26
2022-12-08T18:43:49.492Z,4.26
2022-12-08T18:48:58.449Z,4.28
2022-12-08T18:54:07.592Z,4.28
2022-12-08T18:59:16.038Z,4.18
2022-12-08T19:04:35.932Z,4.18
2022-12-08T19:09:33.004Z,4.28
2022-12-08T19:14:42.148Z,4.28
2022-12-08T19:19:50.612Z,4.32
2022-12-08T19:25:01.050Z,4.32
2022-12-08T19:30:10.495Z,4.33
2022-12-08T19:35:19.250Z,4.33
2022-12-08T19:40:29.063Z,4.37
2022-12-08T19:45:39.165Z,4.37
2022-12-08T19:50:47.930Z,4.34
2022-12-08T19:55:57.010Z,4.34
2022-12-08T20:01:08.660Z,4.37
2022-12-08T20:06:17.172Z,4.37
2022-12-08T20:11:25.661Z,4.38
2022-12-08T20:16:36.491Z,4.39
2022-12-08T20:21:45.197Z,4.39
2022-12-08T20:26:54.379Z,4.41
2022-12-08T20:32:04.598Z,4.41
2022-12-08T20:37:12.572Z,4.43
2022-12-08T20:42:22.970Z,4.43
2022-12-08T20:47:33.116Z,4.42
2022-12-08T20:52:42.797Z,4.42
2022-12-08T20:57:53.194Z,4.64
2022-12-08T21:03:03.904Z,4.64
2022-12-08T21:08:13.353Z,4.32
2022-12-08T21:13:21.303Z,4.32
2022-12-08T21:18:40.371Z,4.31
2022-12-08T21:23:39.994Z,4.31
2022-12-08T21:28:49.230Z,4.24
2022-12-08T21:33:58.832Z,4.24
2022-12-08T21:39:08.596Z,4.39
2022-12-08T21:44:17.393Z,4.39
2022-12-08T21:49:25.703Z,4.41
2022-12-08T21:54:34.675Z,4.41
2022-12-08T21:59:44.500Z,4.34
2022-12-08T22:04:56.442Z,4.34
2022-12-08T22:10:07.231Z,4.34
2022-12-08T22:15:13.827Z,4.34
2022-12-08T22:20:22.339Z,4.28
2022-12-08T22:25:31.900Z,4.28
2022-12-08T22:30:41.021Z,4.39
2022-12-08T22:35:50.724Z,4.39
2022-12-08T22:41:00.545Z,4.36
2022-12-08T22:46:13.023Z,4.36
2022-12-08T22:51:17.586Z,4.37
2022-12-08T22:56:25.968Z,4.37
2022-12-08T23:01:36.235Z,4.41
2022-12-08T23:06:44.878Z,4.41
2022-12-08T23:11:55.895Z,4.49
2022-12-08T23:17:07.011Z,4.4
2022-12-08T23:22:15.567Z,4.4
2022-12-08T23:27:23.873Z,4.46
2022-12-08T23:32:33.451Z,4.46
2022-12-08T23:37:43.392Z,4.44
2022-12-08T23:42:53.187Z,4.44
2022-12-08T23:48:02.909Z,4.41
2022-12-08T23:53:11.296Z,4.41
2022-12-08T23:58:21.112Z,4.37
